createdAt,value
2017-11-22T00:01:43.034Z,68.20
2017-11-22T00:04:11.893Z,68.10
2017-11-22T00:06:41.287Z,68.50
2017-11-22T00:09:10.183Z,68.30
2017-11-22T00:11:39.279Z,68.50
2017-11-22T00:14:08.143Z,68.90
2017-11-22T00:16:37.065Z,68.80
2017-11-22T00:19:06.778Z,68.90
2017-11-22T00:21:35.667Z,68.80
2017-11-22T00:24:04.756Z,68.40
2017-11-22T00:26:33.747Z,68.60
2017-11-22T00:29:02.897Z,70.60
2017-11-22T00:31:31.634Z,70.30
2017-11-22T00:34:00.527Z,72.00
2017-11-22T00:36:29.419Z,70.70
2017-11-22T00:38:58.891Z,70.00
2017-11-22T00:41:28.636Z,71.70
2017-11-22T00:43:57.638Z,71.60
2017-11-22T00:46:27.099Z,70.70
2017-11-22T00:48:55.919Z,72.20
2017-11-22T00:51:25.023Z,72.20
2017-11-22T00:53:54.081Z,72.40
2017-11-22T00:56:23.651Z,72.20
2017-11-22T00:58:52.923Z,71.60
2017-11-22T01:01:21.915Z,71.80
2017-11-22T01:03:50.903Z,73.20
2017-11-22T01:06:21.057Z,72.30
2017-11-22T01:08:50.737Z,72.10
2017-11-22T01:11:19.840Z,71.70
2017-11-22T01:13:48.803Z,71.60
2017-11-22T01:16:17.960Z,72.00
2017-11-22T01:18:46.914Z,71.10
2017-11-22T01:21:15.790Z,72.60
2017-11-22T01:23:44.695Z,72.80
2017-11-22T01:26:13.380Z,72.10
2017-11-22T01:28:42.630Z,71.80
2017-11-22T01:31:11.681Z,72.00
2017-11-22T01:33:40.589Z,71.70
2017-11-22T01:36:09.705Z,71.00
2017-11-22T01:38:38.857Z,72.00
2017-11-22T01:41:08.161Z,71.60
2017-11-22T01:43:38.834Z,71.50
2017-11-22T01:46:08.982Z,71.10
2017-11-22T01:48:39.060Z,69.90
2017-11-22T01:51:07.821Z,69.90
2017-11-22T01:53:36.655Z,69.00
2017-11-22T01:56:05.713Z,69.60
2017-11-22T01:58:34.395Z,69.70
2017-11-22T02:01:03.285Z,69.60
2017-11-22T02:03:32.171Z,70.10
2017-11-22T02:06:00.863Z,70.70
2017-11-22T02:08:29.648Z,70.30
2017-11-22T02:10:58.540Z,70.60
2017-11-22T02:13:27.230Z,70.70
2017-11-22T02:15:56.017Z,70.40
2017-11-22T02:18:25.109Z,71.00
2017-11-22T02:20:53.998Z,70.90
2017-11-22T02:23:22.685Z,70.90
2017-11-22T02:25:51.576Z,71.50
2017-11-22T02:28:20.363Z,71.30
2017-11-22T02:30:49.257Z,70.40
2017-11-22T02:33:18.966Z,70.80
2017-11-22T02:35:47.688Z,70.70
2017-11-22T02:38:16.439Z,70.60
2017-11-22T02:40:45.342Z,71.00
2017-11-22T02:43:15.050Z,70.50
2017-11-22T02:45:43.726Z,70.40
2017-11-22T02:48:13.420Z,70.70
2017-11-22T02:50:42.126Z,70.50
2017-11-22T02:53:11.016Z,70.70
2017-11-22T02:55:40.008Z,70.60
2017-11-22T02:58:08.904Z,69.70
2017-11-22T03:00:37.749Z,69.70
2017-11-22T03:03:06.636Z,70.30
2017-11-22T03:05:35.372Z,70.00
2017-11-22T03:08:04.886Z,70.80
2017-11-22T03:10:33.766Z,70.80
2017-11-22T03:13:03.476Z,71.40
2017-11-22T03:15:32.366Z,71.40
2017-11-22T03:18:01.259Z,71.60
2017-11-22T03:20:29.943Z,71.40
2017-11-22T03:22:58.628Z,71.30
2017-11-22T03:25:27.524Z,71.50
2017-11-22T03:27:56.313Z,71.40
2017-11-22T03:30:25.203Z,71.40
2017-11-22T03:32:54.092Z,70.60
2017-11-22T03:35:22.776Z,70.90
2017-11-22T03:37:51.563Z,70.50
2017-11-22T03:40:20.457Z,70.40
2017-11-22T03:42:49.962Z,70.80
2017-11-22T03:45:18.648Z,70.80
2017-11-22T03:47:48.152Z,70.50
2017-11-22T03:50:17.046Z,69.90
2017-11-22T03:52:51.466Z,69.10
2017-11-22T03:55:20.358Z,69.10
2017-11-22T03:57:49.248Z,68.70
2017-11-22T04:00:18.329Z,68.60
2017-11-22T04:02:58.635Z,68.90
2017-11-22T04:05:27.388Z,69.20
2017-11-22T04:07:56.176Z,68.80
2017-11-22T04:10:24.862Z,68.20
2017-11-22T04:12:53.654Z,68.10
2017-11-22T04:15:22.338Z,68.50
2017-11-22T04:17:55.120Z,68.90
2017-11-22T04:20:30.361Z,69.10
2017-11-22T04:22:59.255Z,69.00
2017-11-22T04:25:27.936Z,69.30
2017-11-22T04:27:56.631Z,69.10
2017-11-22T04:30:25.721Z,69.00
2017-11-22T04:32:55.226Z,68.90
2017-11-22T04:35:24.013Z,68.80
2017-11-22T04:37:52.699Z,69.10
2017-11-22T04:40:21.392Z,69.40
2017-11-22T04:42:50.277Z,69.10
2017-11-22T04:45:19.167Z,69.10
2017-11-22T04:47:48.059Z,69.10
2017-11-22T04:50:16.744Z,69.50
2017-11-22T04:52:45.635Z,69.40
2017-11-22T04:55:14.534Z,70.10
2017-11-22T04:57:43.419Z,70.00
2017-11-22T05:00:12.309Z,69.90
2017-11-22T05:02:41.813Z,69.70
2017-11-22T05:05:10.705Z,69.60
2017-11-22T05:07:39.596Z,69.70
2017-11-22T05:10:08.469Z,70.00
2017-11-22T05:12:37.363Z,70.30
2017-11-22T05:15:06.268Z,70.20
2017-11-22T05:17:35.160Z,70.40
2017-11-22T05:20:03.847Z,70.50
2017-11-22T05:26:03.888Z,70.90
2017-11-22T05:28:32.575Z,71.90
2017-11-22T05:31:01.260Z,72.00
2017-11-22T05:33:29.890Z,71.90
2017-11-22T05:35:58.635Z,71.20
2017-11-22T05:38:27.305Z,71.30
2017-11-22T05:40:56.221Z,70.70
2017-11-22T05:43:25.102Z,69.80
2017-11-22T05:45:53.899Z,69.10
2017-11-22T05:48:22.835Z,67.30
2017-11-22T05:50:51.549Z,66.40
2017-11-22T05:53:20.260Z,66.30
2017-11-22T05:55:49.974Z,66.90
2017-11-22T05:58:18.858Z,66.90
2017-11-22T06:00:54.312Z,66.10
2017-11-22T06:03:23.403Z,65.70
2017-11-22T06:05:52.089Z,66.20
2017-11-22T06:08:20.773Z,65.90
2017-11-22T06:10:49.868Z,66.30
2017-11-22T06:13:18.657Z,66.50
2017-11-22T06:15:47.444Z,66.60
2017-11-22T06:18:16.182Z,66.40
2017-11-22T06:20:44.918Z,67.30
2017-11-22T06:23:13.605Z,67.10
2017-11-22T06:25:42.394Z,67.60
2017-11-22T06:28:11.189Z,67.40
2017-11-22T06:30:46.736Z,67.50
2017-11-22T06:33:15.420Z,67.80
2017-11-22T06:35:44.101Z,68.00
2017-11-22T06:38:12.729Z,67.70
2017-11-22T06:40:41.479Z,68.10
2017-11-22T06:43:10.162Z,68.00
2017-11-22T06:45:39.053Z,68.20
2017-11-22T06:48:07.842Z,68.30
2017-11-22T06:50:36.770Z,68.50
2017-11-22T06:53:05.470Z,69.00
2017-11-22T06:55:34.205Z,68.90
2017-11-22T06:58:02.893Z,69.30
2017-11-22T07:00:31.790Z,69.60
2017-11-22T07:03:01.493Z,70.10
2017-11-22T07:05:30.413Z,70.20
2017-11-22T07:07:59.904Z,70.60
2017-11-22T07:10:28.578Z,70.60
2017-11-22T07:12:57.574Z,71.00
2017-11-22T07:15:26.378Z,71.10
2017-11-22T07:17:55.147Z,70.80
2017-11-22T07:20:24.114Z,70.90
2017-11-22T07:22:53.971Z,70.80
2017-11-22T07:25:22.822Z,70.80
2017-11-22T07:27:51.734Z,71.20
2017-11-22T07:30:20.424Z,70.90
2017-11-22T07:32:49.317Z,70.80
2017-11-22T07:35:17.961Z,71.00
2017-11-22T07:37:50.780Z,70.80
2017-11-22T07:40:19.467Z,70.40
2017-11-22T07:42:48.974Z,70.90
2017-11-22T07:45:17.864Z,70.80
2017-11-22T07:47:52.135Z,71.00
2017-11-22T07:50:20.867Z,70.90
2017-11-22T07:52:49.758Z,71.20
2017-11-22T07:55:18.444Z,71.80
2017-11-22T07:57:50.213Z,71.60
2017-11-22T08:00:32.817Z,71.60
2017-11-22T08:03:07.237Z,71.40
2017-11-22T08:05:36.032Z,71.10
2017-11-22T08:08:05.121Z,71.20
2017-11-22T08:10:33.853Z,69.50
2017-11-22T08:13:02.594Z,68.80
2017-11-22T08:15:31.286Z,68.10
2017-11-22T08:18:00.178Z,67.90
2017-11-22T08:20:28.973Z,67.60
2017-11-22T08:23:00.719Z,67.50
2017-11-22T08:25:29.916Z,66.90
2017-11-22T08:27:58.809Z,66.40
2017-11-22T08:30:27.708Z,66.30
2017-11-22T08:32:57.416Z,65.90
2017-11-22T08:35:26.303Z,66.20
2017-11-22T08:37:55.207Z,66.50
2017-11-22T08:40:23.981Z,66.80
2017-11-22T08:42:58.407Z,67.20
2017-11-22T08:45:27.100Z,67.10
2017-11-22T08:47:55.979Z,68.60
2017-11-22T08:50:24.873Z,75.20
2017-11-22T08:52:54.379Z,81.00
2017-11-22T08:55:28.799Z,81.00
2017-11-22T08:58:03.217Z,80.90
2017-11-22T09:00:31.900Z,81.20
2017-11-22T09:03:03.659Z,81.70
2017-11-22T09:08:33.599Z,82.80
2017-11-22T09:11:02.693Z,82.70
2017-11-22T09:13:31.486Z,82.60
2017-11-22T09:16:00.382Z,82.40
2017-11-22T09:18:38.898Z,81.90
2017-11-22T09:21:10.649Z,81.20
2017-11-22T09:23:39.536Z,81.00
2017-11-22T09:26:08.173Z,81.50
2017-11-22T09:28:36.912Z,81.10
2017-11-22T09:31:11.330Z,81.20
2017-11-22T09:33:40.037Z,81.10
2017-11-22T09:36:09.013Z,80.40
2017-11-22T09:38:38.004Z,81.00
2017-11-22T09:41:06.862Z,81.10
2017-11-22T09:43:36.401Z,81.20
2017-11-22T09:46:05.460Z,81.10
2017-11-22T09:48:34.186Z,80.30
2017-11-22T09:51:02.871Z,80.20
2017-11-22T09:53:31.763Z,80.50
2017-11-22T09:56:00.594Z,80.50
2017-11-22T09:58:29.337Z,80.90
2017-11-22T10:00:58.228Z,80.70
2017-11-22T10:03:26.915Z,80.50
2017-11-22T10:05:55.608Z,80.30
2017-11-22T10:08:24.490Z,79.80
2017-11-22T10:10:53.191Z,78.80
2017-11-22T10:13:22.091Z,78.20
2017-11-22T10:15:51.781Z,78.80
2017-11-22T10:18:35.416Z,78.80
2017-11-22T10:21:04.313Z,78.70
2017-11-22T10:23:33.203Z,79.00
2017-11-22T10:26:02.945Z,78.40
2017-11-22T10:28:31.802Z,78.50
2017-11-22T10:31:00.693Z,78.20
2017-11-22T10:33:35.117Z,78.20
2017-11-22T10:36:04.828Z,77.70
2017-11-22T10:38:33.717Z,77.70
2017-11-22T10:41:02.602Z,77.60
2017-11-22T10:43:31.699Z,78.20
2017-11-22T10:46:00.595Z,78.10
2017-11-22T10:48:29.483Z,78.50
2017-11-22T10:50:58.375Z,78.70
2017-11-22T10:53:27.261Z,78.20
2017-11-22T10:55:56.162Z,78.10
2017-11-22T10:58:25.605Z,78.50
2017-11-22T11:00:54.998Z,78.20
2017-11-22T11:03:24.568Z,78.20
2017-11-22T11:05:53.255Z,78.10
2017-11-22T11:08:22.149Z,77.50
2017-11-22T11:10:51.600Z,78.10
2017-11-22T11:13:23.327Z,77.90
2017-11-22T11:15:52.960Z,78.30
2017-11-22T11:18:22.416Z,78.10
2017-11-22T11:20:51.214Z,78.00
2017-11-22T11:23:19.995Z,78.00
2017-11-22T11:25:48.895Z,78.10
2017-11-22T11:28:17.726Z,78.20
2017-11-22T11:30:47.197Z,77.50
2017-11-22T11:33:16.033Z,77.40
2017-11-22T11:35:56.433Z,77.30
2017-11-22T11:38:26.144Z,77.70
2017-11-22T11:40:55.039Z,77.60
2017-11-22T11:43:24.947Z,78.00
2017-11-22T11:45:53.844Z,77.80
2017-11-22T11:48:24.693Z,78.00
2017-11-22T11:50:53.471Z,78.10
2017-11-22T11:53:23.584Z,77.70
2017-11-22T11:55:52.473Z,77.70
2017-11-22T11:58:21.372Z,77.60
2017-11-22T12:00:50.154Z,77.30
2017-11-22T12:03:18.946Z,77.30
2017-11-22T12:05:47.634Z,77.20
2017-11-22T12:08:16.427Z,76.90
2017-11-22T12:10:45.310Z,76.70
2017-11-22T12:13:14.104Z,77.20
2017-11-22T12:15:42.956Z,77.10
2017-11-22T12:18:12.498Z,77.70
2017-11-22T12:20:41.181Z,77.60
2017-11-22T12:23:16.010Z,77.90
2017-11-22T12:25:44.705Z,77.40
2017-11-22T12:28:13.586Z,76.70
2017-11-22T12:30:42.382Z,76.50
2017-11-22T12:33:11.063Z,76.60
2017-11-22T12:35:39.652Z,76.30
2017-11-22T12:38:08.539Z,76.50
2017-11-22T12:40:37.230Z,77.00
2017-11-22T12:43:06.011Z,77.70
2017-11-22T12:45:34.856Z,77.70
2017-11-22T12:48:03.592Z,78.00
2017-11-22T12:50:32.283Z,77.70
2017-11-22T12:53:01.165Z,78.20
2017-11-22T12:55:29.957Z,78.70
2017-11-22T12:58:00.689Z,78.70
2017-11-22T13:00:29.783Z,78.80
2017-11-22T13:02:59.498Z,78.80
2017-11-22T13:05:28.282Z,78.80
2017-11-22T13:07:57.175Z,78.90
2017-11-22T13:10:29.958Z,78.70
2017-11-22T13:12:58.660Z,78.50
2017-11-22T13:15:27.542Z,78.50
2017-11-22T13:17:56.425Z,78.50
2017-11-22T13:20:25.272Z,78.90
2017-11-22T13:22:54.926Z,79.00
2017-11-22T13:25:23.545Z,78.90
2017-11-22T13:27:52.212Z,78.70
2017-11-22T13:30:20.929Z,79.00
2017-11-22T13:32:49.671Z,78.80
2017-11-22T13:35:18.561Z,78.80
2017-11-22T13:37:47.612Z,78.70
2017-11-22T13:40:16.397Z,79.10
2017-11-22T13:42:46.797Z,79.50
2017-11-22T13:45:17.162Z,79.50
2017-11-22T13:47:45.847Z,79.50
2017-11-22T13:50:15.086Z,79.50
2017-11-22T13:52:44.178Z,79.10
2017-11-22T13:55:13.480Z,79.50
2017-11-22T13:57:42.696Z,79.30
2017-11-22T14:00:11.859Z,79.40
2017-11-22T14:02:40.936Z,79.90
2017-11-22T14:05:10.166Z,79.70
2017-11-22T14:07:39.149Z,78.90
2017-11-22T14:10:08.139Z,78.60
2017-11-22T14:12:37.249Z,77.80
2017-11-22T14:15:08.090Z,78.00
2017-11-22T14:17:37.592Z,77.10
2017-11-22T14:20:06.783Z,76.50
2017-11-22T14:22:35.890Z,75.80
2017-11-22T14:25:05.832Z,75.60
2017-11-22T14:27:35.039Z,75.40
2017-11-22T14:30:04.913Z,75.40
2017-11-22T14:32:34.958Z,74.80
2017-11-22T14:35:04.649Z,74.90
2017-11-22T14:37:33.841Z,74.80
2017-11-22T14:40:04.279Z,72.20
2017-11-22T14:42:35.110Z,68.20
2017-11-22T14:45:04.723Z,68.10
2017-11-22T14:47:34.602Z,68.60
2017-11-22T14:50:03.758Z,68.60
2017-11-22T14:52:33.101Z,70.80
2017-11-22T14:55:02.015Z,70.60
2017-11-22T14:57:30.913Z,71.00
2017-11-22T15:00:00.103Z,72.10
2017-11-22T15:02:29.507Z,73.70
2017-11-22T15:04:59.130Z,75.60
2017-11-22T15:07:28.212Z,77.00
2017-11-22T15:09:57.308Z,77.90
2017-11-22T15:12:26.487Z,78.50
2017-11-22T15:14:56.526Z,80.20
2017-11-22T15:17:25.690Z,80.10
2017-11-22T15:19:54.689Z,80.30
2017-11-22T15:22:23.709Z,81.60
2017-11-22T15:24:52.748Z,81.80
2017-11-22T15:27:21.699Z,81.90
2017-11-22T15:29:50.591Z,81.70
2017-11-22T15:32:19.581Z,82.00
2017-11-22T15:34:48.676Z,82.40
2017-11-22T15:37:19.187Z,82.80
2017-11-22T15:39:48.369Z,82.80
2017-11-22T15:42:17.533Z,83.30
2017-11-22T15:44:46.492Z,83.60
2017-11-22T15:47:16.623Z,83.90
2017-11-22T15:49:45.401Z,84.00
2017-11-22T15:52:14.496Z,84.20
2017-11-22T15:54:43.189Z,84.20
2017-11-22T15:57:12.075Z,84.00
2017-11-22T15:59:41.175Z,84.10
2017-11-22T16:02:10.261Z,84.20
2017-11-22T16:04:39.421Z,84.40
2017-11-22T16:07:08.252Z,84.60
2017-11-22T16:09:37.350Z,84.80
2017-11-22T16:12:07.271Z,85.40
2017-11-22T16:14:37.333Z,85.30
2017-11-22T16:17:06.267Z,85.30
2017-11-22T16:19:35.229Z,85.60
2017-11-22T16:22:04.684Z,86.10
2017-11-22T16:24:34.349Z,86.20
2017-11-22T16:27:03.194Z,86.20
2017-11-22T16:29:32.898Z,86.50
2017-11-22T16:32:03.143Z,87.50
2017-11-22T16:34:32.197Z,86.90
2017-11-22T16:37:01.092Z,87.10
2017-11-22T16:39:29.987Z,87.30
2017-11-22T16:41:58.859Z,87.50
2017-11-22T16:44:28.129Z,87.70
2017-11-22T16:46:56.924Z,87.90
2017-11-22T16:49:26.365Z,87.90
2017-11-22T16:51:55.671Z,88.00
2017-11-22T16:54:24.770Z,88.10
2017-11-22T16:56:53.856Z,88.30
2017-11-22T16:59:23.387Z,88.50
2017-11-22T17:01:52.257Z,88.60
2017-11-22T17:04:21.410Z,88.90
2017-11-22T17:06:50.421Z,89.00
2017-11-22T17:09:19.746Z,89.10
2017-11-22T17:11:48.637Z,89.20
2017-11-22T17:14:18.683Z,89.70
2017-11-22T17:16:47.652Z,89.60
2017-11-22T17:19:16.742Z,89.70
2017-11-22T17:21:45.845Z,89.60
2017-11-22T17:24:15.149Z,89.70
2017-11-22T17:26:44.612Z,89.80
2017-11-22T17:29:13.534Z,89.80
2017-11-22T17:31:42.437Z,89.70
2017-11-22T17:34:11.259Z,89.70
2017-11-22T17:36:43.893Z,89.70
2017-11-22T17:39:12.912Z,90.00
2017-11-22T17:41:42.293Z,90.00
2017-11-22T17:44:12.003Z,90.00
2017-11-22T17:46:42.030Z,90.00
2017-11-22T17:49:10.808Z,90.00
2017-11-22T17:51:39.698Z,89.90
2017-11-22T17:54:08.794Z,90.00
2017-11-22T17:56:37.879Z,90.00
2017-11-22T17:59:25.634Z,89.90
2017-11-22T18:01:55.801Z,89.60
2017-11-22T18:04:24.636Z,89.60
2017-11-22T18:06:53.841Z,89.70
2017-11-22T18:09:22.777Z,89.40
2017-11-22T18:11:51.835Z,89.90
2017-11-22T18:14:20.956Z,89.30
2017-11-22T18:16:49.905Z,89.50
2017-11-22T18:19:19.077Z,89.40
2017-11-22T18:21:47.812Z,89.10
2017-11-22T18:24:17.091Z,89.00
2017-11-22T18:26:45.983Z,89.10
2017-11-22T18:29:14.771Z,89.10
2017-11-22T18:31:43.925Z,89.20
2017-11-22T18:34:12.963Z,88.70
2017-11-22T18:36:42.070Z,88.50
2017-11-22T18:39:10.952Z,88.50
2017-11-22T18:41:40.049Z,89.30
2017-11-22T18:44:08.939Z,88.70
2017-11-22T18:46:37.932Z,88.40
2017-11-22T18:49:06.825Z,88.20
2017-11-22T18:51:35.722Z,87.90
2017-11-22T18:54:04.605Z,88.00
2017-11-22T18:56:33.578Z,88.10
2017-11-22T18:59:03.009Z,87.70
2017-11-22T19:01:32.427Z,87.80
2017-11-22T19:04:01.106Z,87.80
2017-11-22T19:06:30.025Z,87.80
2017-11-22T19:08:58.968Z,87.70
2017-11-22T19:11:27.823Z,87.80
2017-11-22T19:13:57.124Z,87.70
2017-11-22T19:16:26.590Z,87.40
2017-11-22T19:21:52.786Z,87.40
2017-11-22T19:24:21.462Z,87.50
2017-11-22T19:26:50.325Z,87.70
2017-11-22T19:29:26.990Z,87.80
2017-11-22T19:31:56.902Z,87.80
2017-11-22T19:34:26.604Z,87.90
2017-11-22T19:36:55.592Z,87.80
2017-11-22T19:39:24.470Z,87.90
2017-11-22T19:41:54.439Z,88.00
2017-11-22T19:44:24.000Z,88.10
2017-11-22T19:46:52.953Z,88.20
2017-11-22T19:49:22.067Z,88.10
2017-11-22T19:51:51.145Z,87.90
2017-11-22T19:54:20.077Z,87.90
2017-11-22T19:56:49.288Z,88.00
2017-11-22T19:59:18.160Z,87.80
2017-11-22T20:01:47.159Z,87.70
2017-11-22T20:04:16.258Z,87.50
2017-11-22T20:06:45.561Z,87.20
2017-11-22T20:09:16.072Z,87.10
2017-11-22T20:11:46.201Z,87.50
2017-11-22T20:14:15.063Z,87.50
2017-11-22T20:16:43.959Z,87.70
2017-11-22T20:19:12.669Z,87.90
2017-11-22T20:21:41.463Z,88.10
2017-11-22T20:24:10.350Z,88.20
2017-11-22T20:26:39.350Z,88.30
2017-11-22T20:29:08.135Z,88.20
2017-11-22T20:31:37.022Z,88.00
2017-11-22T20:34:05.912Z,87.90
2017-11-22T20:36:35.625Z,87.90
2017-11-22T20:39:04.454Z,87.80
2017-11-22T20:41:33.206Z,87.80
2017-11-22T20:44:02.238Z,87.80
2017-11-22T20:46:30.994Z,87.80
2017-11-22T20:49:00.142Z,87.50
2017-11-22T20:51:29.788Z,87.30
2017-11-22T20:53:58.637Z,87.20
2017-11-22T20:56:28.085Z,86.80
2017-11-22T20:58:57.041Z,86.50
2017-11-22T21:01:26.073Z,86.50
2017-11-22T21:03:55.218Z,86.50
2017-11-22T21:06:23.951Z,86.90
2017-11-22T21:08:52.907Z,86.20
2017-11-22T21:11:23.072Z,86.10
2017-11-22T21:13:51.960Z,85.90
2017-11-22T21:16:21.181Z,85.90
2017-11-22T21:18:50.357Z,85.60
2017-11-22T21:21:20.001Z,85.50
2017-11-22T21:23:48.927Z,85.50
2017-11-22T21:26:17.901Z,85.50
2017-11-22T21:28:46.737Z,85.40
2017-11-22T21:31:15.731Z,85.30
2017-11-22T21:33:46.050Z,85.10
2017-11-22T21:36:15.763Z,85.10
2017-11-22T21:38:44.612Z,85.10
2017-11-22T21:41:13.342Z,84.80
2017-11-22T21:43:42.199Z,84.90
2017-11-22T21:46:10.966Z,84.80
2017-11-22T21:48:39.821Z,84.90
2017-11-22T21:51:09.517Z,85.00
2017-11-22T21:53:38.409Z,85.00
2017-11-22T21:56:07.304Z,85.10
2017-11-22T21:58:36.395Z,85.10
2017-11-22T22:01:05.516Z,85.40
2017-11-22T22:03:34.489Z,85.70
2017-11-22T22:06:03.902Z,85.70
2017-11-22T22:08:32.693Z,85.80
2017-11-22T22:11:01.778Z,85.80
2017-11-22T22:13:31.352Z,86.20
2017-11-22T22:16:00.385Z,86.20
2017-11-22T22:18:29.924Z,86.40
2017-11-22T22:20:58.976Z,86.50
2017-11-22T22:23:27.881Z,86.50
2017-11-22T22:25:56.763Z,86.50
2017-11-22T22:28:25.652Z,86.50
2017-11-22T22:30:54.339Z,86.50
2017-11-22T22:33:23.431Z,86.50
2017-11-22T22:35:53.077Z,86.30
2017-11-22T22:38:23.671Z,86.20
2017-11-22T22:40:52.776Z,86.10
2017-11-22T22:43:21.452Z,86.00
2017-11-22T22:45:50.143Z,86.70
2017-11-22T22:48:19.031Z,86.20
2017-11-22T22:50:47.718Z,86.20
2017-11-22T22:53:17.018Z,86.20
2017-11-22T22:55:45.861Z,86.20
2017-11-22T22:58:14.801Z,86.10
2017-11-22T23:00:43.502Z,86.30
2017-11-22T23:03:12.580Z,86.30
2017-11-22T23:05:41.212Z,86.30
2017-11-22T23:08:09.876Z,86.30
2017-11-22T23:10:39.058Z,86.40
2017-11-22T23:13:08.049Z,86.20
2017-11-22T23:15:36.667Z,86.30
2017-11-22T23:18:05.418Z,87.10
2017-11-22T23:20:34.307Z,87.50
2017-11-22T23:23:03.203Z,87.20
2017-11-22T23:25:32.642Z,86.80
2017-11-22T23:28:02.308Z,86.90
2017-11-22T23:30:31.216Z,87.00
2017-11-22T23:33:00.071Z,87.10
2017-11-22T23:35:28.780Z,86.90
2017-11-22T23:37:57.874Z,86.80
2017-11-22T23:40:26.722Z,87.00
2017-11-22T23:42:55.450Z,86.80
2017-11-22T23:45:24.342Z,86.70
2017-11-22T23:47:53.249Z,86.90
2017-11-22T23:50:22.143Z,86.80
2017-11-22T23:52:51.792Z,86.70
2017-11-22T23:55:20.736Z,86.70
2017-11-22T23:57:49.585Z,86.90
